createdAt,value
2022-10-19T00:02:27.285Z,101988.53
2022-10-19T00:04:58.843Z,101990.19
2022-10-19T00:07:30.932Z,101992.66
2022-10-19T00:10:02.665Z,101989.63
2022-10-19T00:12:34.512Z,101994.94
2022-10-19T00:15:06.044Z,101994.94
2022-10-19T00:17:37.904Z,101993.94
2022-10-19T00:20:09.394Z,101993.09
2022-10-19T00:22:41.222Z,101996.84
2022-10-19T00:25:12.707Z,101995.47
2022-10-19T00:27:44.915Z,101998.50
2022-10-19T00:30:16.501Z,101999.34
2022-10-19T00:32:48.410Z,101998.31
2022-10-19T00:35:19.906Z,101993.81
2022-10-19T00:37:52.360Z,101999.78
2022-10-19T00:40:23.941Z,101996.28
2022-10-19T00:42:56.517Z,101988.91
2022-10-19T00:45:28.057Z,101996.09
2022-10-19T00:47:59.877Z,101988.53
2022-10-19T00:50:31.412Z,101983.59
2022-10-19T00:53:03.307Z,101984.41
2022-10-19T00:55:34.784Z,101983.00
2022-10-19T00:58:06.596Z,101979.50
2022-10-19T01:00:38.182Z,101990.00
2022-10-19T01:03:10.068Z,101991.84
2022-10-19T01:05:41.616Z,102002.16
2022-10-19T01:08:13.445Z,101993.34
2022-10-19T01:10:45.012Z,101988.72
2022-10-19T01:13:16.945Z,101989.75
2022-10-19T01:15:48.470Z,101983.84
2022-10-19T01:18:20.467Z,101980.53
2022-10-19T01:20:51.961Z,101984.84
2022-10-19T01:23:23.467Z,101976.66
2022-10-19T01:25:55.234Z,101981.16
2022-10-19T01:28:27.277Z,101976.03
2022-10-19T01:30:59.138Z,101978.50
2022-10-19T01:33:30.617Z,101974.38
2022-10-19T01:36:02.491Z,101970.44
2022-10-19T01:38:33.982Z,101971.06
2022-10-19T01:41:05.846Z,101964.91
2022-10-19T01:43:37.355Z,101961.03
2022-10-19T01:46:08.861Z,101690.72
2022-10-19T01:51:16.106Z,101959.56
2022-10-19T01:53:47.697Z,101973.50
2022-10-19T01:56:19.546Z,101956.22
2022-10-19T01:58:51.039Z,101964.59
2022-10-19T02:01:22.830Z,101958.81
2022-10-19T02:03:54.315Z,101966.38
2022-10-19T02:06:26.189Z,101953.22
2022-10-19T02:08:57.673Z,101955.72
2022-10-19T02:11:29.597Z,101953.22
2022-10-19T02:14:01.093Z,101957.09
2022-10-19T02:16:32.923Z,101947.06
2022-10-19T02:19:04.538Z,101944.22
2022-10-19T02:21:36.480Z,101954.06
2022-10-19T02:24:07.964Z,101946.06
2022-10-19T02:26:39.484Z,101945.03
2022-10-19T02:29:10.989Z,101943.19
2022-10-19T02:31:42.797Z,101932.66
2022-10-19T02:34:14.309Z,101949.41
2022-10-19T02:36:46.333Z,101947.56
2022-10-19T02:39:17.815Z,101946.56
2022-10-19T02:41:49.618Z,101950.06
2022-10-19T02:44:21.112Z,101948.78
2022-10-19T02:46:52.918Z,101955.59
2022-10-19T02:49:24.431Z,101949.34
2022-10-19T02:51:56.298Z,101955.31
2022-10-19T02:54:27.781Z,101952.28
2022-10-19T02:56:59.634Z,101951.06
2022-10-19T02:59:31.129Z,101950.25
2022-10-19T03:02:02.934Z,101948.84
2022-10-19T03:04:34.522Z,101949.22
2022-10-19T03:07:06.668Z,101946.38
2022-10-19T03:09:38.167Z,101956.03
2022-10-19T03:12:10.026Z,101959.13
2022-10-19T03:14:41.511Z,101956.66
2022-10-19T03:17:13.312Z,101964.09
2022-10-19T03:19:44.819Z,101957.47
2022-10-19T03:22:16.652Z,101962.44
2022-10-19T03:24:48.406Z,101967.56
2022-10-19T03:27:19.962Z,101970.25
2022-10-19T03:29:51.516Z,101971.06
2022-10-19T03:32:23.293Z,101970.88
2022-10-19T03:34:54.781Z,101972.34
2022-10-19T03:37:26.570Z,101973.00
2022-10-19T03:39:58.045Z,101978.16
2022-10-19T03:42:30.113Z,101987.63
2022-10-19T03:45:01.944Z,101982.66
2022-10-19T03:47:34.096Z,101990.47
2022-10-19T03:50:06.095Z,101984.13
2022-10-19T03:52:37.871Z,101988.44
2022-10-19T03:55:10.354Z,101988.44
2022-10-19T03:57:42.182Z,101986.59
2022-10-19T04:00:13.675Z,101987.41
2022-10-19T04:02:45.551Z,101979.41
2022-10-19T04:05:17.036Z,101988.88
2022-10-19T04:07:48.859Z,101996.25
2022-10-19T04:10:20.376Z,101996.44
2022-10-19T04:12:53.864Z,101998.47
2022-10-19T04:15:25.700Z,102006.09
2022-10-19T04:17:57.661Z,102006.72
2022-10-19T04:20:29.190Z,102008.56
2022-10-19T04:23:00.991Z,102013.47
2022-10-19T04:25:32.483Z,102000.75
2022-10-19T04:28:04.425Z,102003.44
2022-10-19T04:30:35.949Z,101999.31
2022-10-19T04:33:07.945Z,102006.28
2022-10-19T04:35:39.427Z,102003.63
2022-10-19T04:38:11.460Z,102000.94
2022-10-19T04:40:43.286Z,102006.09
2022-10-19T04:43:14.892Z,102012.00
2022-10-19T04:45:46.715Z,102011.00
2022-10-19T04:48:18.238Z,102019.00
2022-10-19T04:50:50.072Z,102027.00
2022-10-19T04:53:21.594Z,102018.34
2022-10-19T04:55:53.485Z,102019.19
2022-10-19T04:58:25.046Z,102028.00
2022-10-19T05:00:56.918Z,102021.84
2022-10-19T05:03:28.426Z,102020.63
2022-10-19T05:06:00.276Z,102018.81
2022-10-19T05:08:31.803Z,102023.31
2022-10-19T05:11:03.838Z,102026.63
2022-10-19T05:13:35.346Z,102035.44
2022-10-19T05:16:07.309Z,102033.78
2022-10-19T05:18:38.799Z,102037.09
2022-10-19T05:21:10.304Z,102033.78
2022-10-19T05:23:41.835Z,102037.28
2022-10-19T05:26:13.603Z,102042.25
2022-10-19T05:28:45.134Z,102045.09
2022-10-19T05:31:17.627Z,102049.22
2022-10-19T05:33:49.195Z,102046.75
2022-10-19T05:36:20.815Z,102053.34
2022-10-19T05:38:52.739Z,102048.03
2022-10-19T05:41:24.760Z,102059.97
2022-10-19T05:43:56.269Z,102057.50
2022-10-19T05:46:28.157Z,102051.13
2022-10-19T05:48:59.695Z,102057.69
2022-10-19T05:51:31.442Z,102054.19
2022-10-19T05:54:03.818Z,102051.31
2022-10-19T05:56:35.637Z,102051.25
2022-10-19T05:59:07.151Z,102055.59
2022-10-19T06:01:39.166Z,102053.09
2022-10-19T06:04:10.886Z,102054.56
2022-10-19T06:06:42.871Z,102054.19
2022-10-19T06:09:14.359Z,102050.00
2022-10-19T06:11:46.286Z,102056.28
2022-10-19T06:14:17.805Z,102049.75
2022-10-19T06:16:49.674Z,102059.25
2022-10-19T06:19:21.158Z,102064.03
2022-10-19T06:21:53.045Z,102060.34
2022-10-19T06:24:24.627Z,102073.34
2022-10-19T06:26:56.506Z,102071.22
2022-10-19T06:29:28.008Z,102078.28
2022-10-19T06:32:00.784Z,102078.72
2022-10-19T06:34:32.362Z,102073.84
2022-10-19T06:37:03.952Z,102073.84
2022-10-19T06:39:35.915Z,102078.72
2022-10-19T06:42:07.825Z,102082.88
2022-10-19T06:44:39.325Z,102066.28
2022-10-19T06:47:11.123Z,102075.53
2022-10-19T06:49:42.655Z,102076.19
2022-10-19T06:52:14.617Z,102076.56
2022-10-19T06:54:46.437Z,102085.69
2022-10-19T06:57:17.944Z,102082.22
2022-10-19T06:59:52.812Z,102086.34
2022-10-19T07:02:25.194Z,102087.03
2022-10-19T07:04:57.048Z,102094.44
2022-10-19T07:07:28.553Z,102096.38
2022-10-19T07:10:00.161Z,102097.44
2022-10-19T07:12:31.671Z,102095.31
2022-10-19T07:15:03.568Z,102091.28
2022-10-19T07:17:35.425Z,102094.66
2022-10-19T07:20:07.359Z,102083.97
2022-10-19T07:22:38.863Z,102089.34
2022-10-19T07:25:10.866Z,102097.63
2022-10-19T07:27:42.602Z,102102.44
2022-10-19T07:30:14.694Z,102101.81
2022-10-19T07:32:47.163Z,102102.47
2022-10-19T07:35:19.172Z,102101.06
2022-10-19T07:37:50.682Z,102104.06
2022-10-19T07:40:22.456Z,102107.31
2022-10-19T07:42:53.962Z,102096.78
2022-10-19T07:45:25.834Z,102101.69
2022-10-19T07:47:57.326Z,102110.03
2022-10-19T07:50:29.247Z,102097.06
2022-10-19T07:53:02.658Z,102104.91
2022-10-19T07:55:34.516Z,102119.56
2022-10-19T07:58:06.047Z,102119.63
2022-10-19T08:00:37.882Z,102127.16
2022-10-19T08:03:57.109Z,102129.69
2022-10-19T08:06:01.347Z,102127.13
2022-10-19T08:08:33.179Z,102128.16
2022-10-19T08:11:04.674Z,102129.19
2022-10-19T08:13:36.476Z,102138.06
2022-10-19T08:16:07.982Z,102133.09
2022-10-19T08:18:39.903Z,102135.59
2022-10-19T08:21:11.396Z,102129.81
2022-10-19T08:23:43.409Z,102136.00
2022-10-19T08:26:14.965Z,102139.69
2022-10-19T08:28:46.788Z,102145.84
2022-10-19T08:31:18.348Z,102144.94
2022-10-19T08:33:50.253Z,102140.16
2022-10-19T08:36:22.175Z,102145.88
2022-10-19T08:38:54.007Z,102150.22
2022-10-19T08:41:25.517Z,102151.44
2022-10-19T08:43:57.401Z,102148.84
2022-10-19T08:46:30.101Z,102147.78
2022-10-19T08:49:02.455Z,102147.75
2022-10-19T08:51:33.948Z,102148.09
2022-10-19T08:54:05.845Z,102156.13
2022-10-19T08:56:52.756Z,102150.41
2022-10-19T08:59:24.586Z,102157.44
2022-10-19T09:01:56.826Z,102152.50
2022-10-19T09:04:28.649Z,102145.25
2022-10-19T09:07:00.415Z,102147.53
2022-10-19T09:09:32.503Z,102152.69
2022-10-19T09:12:04.063Z,102156.19
2022-10-19T09:14:36.775Z,102153.72
2022-10-19T09:17:08.296Z,102158.25
2022-10-19T09:19:40.155Z,102166.31
2022-10-19T09:22:11.645Z,102158.66
2022-10-19T09:24:44.209Z,102162.00
2022-10-19T09:27:15.718Z,102160.38
2022-10-19T09:29:47.700Z,102162.88
2022-10-19T09:32:19.213Z,102164.50
2022-10-19T09:34:51.274Z,102169.88
2022-10-19T09:37:26.285Z,102166.53
2022-10-19T09:39:58.226Z,102175.28
2022-10-19T09:42:30.770Z,102173.28
2022-10-19T09:45:02.281Z,102166.81
2022-10-19T09:47:34.305Z,102169.75
2022-10-19T09:50:06.130Z,102180.41
2022-10-19T09:52:38.328Z,102182.06
2022-10-19T09:55:09.838Z,102192.47
2022-10-19T09:57:41.780Z,102190.94
2022-10-19T10:00:13.293Z,102185.41
2022-10-19T10:05:21.549Z,102182.69
2022-10-19T10:07:53.588Z,102188.88
2022-10-19T10:10:28.151Z,102180.22
2022-10-19T10:13:02.352Z,102182.22
2022-10-19T10:15:33.877Z,102181.22
2022-10-19T10:18:05.465Z,102179.44
2022-10-19T10:20:37.051Z,102176.81
2022-10-19T10:23:08.937Z,102175.34
2022-10-19T10:25:40.561Z,102184.03
2022-10-19T10:28:12.430Z,102177.72
2022-10-19T10:30:43.923Z,102180.53
2022-10-19T10:33:26.988Z,102187.69
2022-10-19T10:36:05.030Z,102176.09
2022-10-19T10:38:36.997Z,102183.72
2022-10-19T10:41:08.927Z,102190.22
2022-10-19T10:43:40.833Z,102192.84
2022-10-19T10:46:12.417Z,102190.78
2022-10-19T10:48:44.499Z,102188.97
2022-10-19T10:51:15.994Z,102185.91
2022-10-19T10:53:47.868Z,102183.97
2022-10-19T10:56:19.351Z,102179.84
2022-10-19T10:58:51.381Z,102189.94
2022-10-19T11:01:22.921Z,102188.38
2022-10-19T11:03:54.764Z,102185.44
2022-10-19T11:06:26.844Z,102182.19
2022-10-19T11:08:58.402Z,102185.03
2022-10-19T11:11:30.412Z,102182.28
2022-10-19T11:14:02.256Z,102181.56
2022-10-19T11:16:33.778Z,102180.44
2022-10-19T11:19:06.008Z,102184.91
2022-10-19T11:21:37.556Z,102184.97
2022-10-19T11:24:09.449Z,102173.94
2022-10-19T11:26:40.936Z,102171.47
2022-10-19T11:29:12.784Z,102174.84
2022-10-19T11:31:45.767Z,102176.81
2022-10-19T11:34:18.656Z,102169.28
2022-10-19T11:36:50.863Z,102178.66
2022-10-19T11:39:22.766Z,101732.25
2022-10-19T11:41:54.252Z,102170.41
2022-10-19T11:44:27.033Z,102168.03
2022-10-19T11:46:58.544Z,102164.28
2022-10-19T11:49:30.382Z,102158.47
2022-10-19T11:52:02.713Z,102153.41
2022-10-19T11:54:34.204Z,102155.50
2022-10-19T11:57:10.537Z,102156.53
2022-10-19T11:59:42.863Z,102155.22
2022-10-19T12:02:14.432Z,102156.28
2022-10-19T12:04:45.984Z,102160.03
2022-10-19T12:07:17.828Z,102145.63
2022-10-19T12:09:49.322Z,102157.78
2022-10-19T12:12:21.098Z,102151.81
2022-10-19T12:14:52.594Z,102159.50
2022-10-19T12:17:24.876Z,102154.44
2022-10-19T12:19:56.784Z,102153.59
2022-10-19T12:22:28.754Z,102156.47
2022-10-19T12:25:00.336Z,102151.41
2022-10-19T12:27:32.427Z,102152.94
2022-10-19T12:30:04.150Z,102147.72
2022-10-19T12:32:35.981Z,102145.38
2022-10-19T12:35:07.504Z,102159.25
2022-10-19T12:37:39.384Z,102152.25
2022-10-19T12:40:10.889Z,102140.53
2022-10-19T12:42:42.874Z,102155.25
2022-10-19T12:45:14.612Z,102145.16
2022-10-19T12:47:46.434Z,102143.53
2022-10-19T12:50:17.946Z,102133.81
2022-10-19T12:52:49.935Z,102133.28
2022-10-19T12:55:21.700Z,102133.66
2022-10-19T12:57:53.526Z,102127.25
2022-10-19T13:00:25.114Z,102127.91
2022-10-19T13:02:57.127Z,102128.78
2022-10-19T13:05:28.669Z,102125.28
2022-10-19T13:08:00.504Z,102119.09
2022-10-19T13:10:32.128Z,102126.81
2022-10-19T13:13:03.939Z,102122.59
2022-10-19T13:15:35.834Z,102124.59
2022-10-19T13:18:08.351Z,102126.28
2022-10-19T13:23:13.391Z,102115.56
2022-10-19T13:25:44.897Z,102107.19
2022-10-19T13:28:16.722Z,102104.88
2022-10-19T13:30:48.235Z,102105.09
2022-10-19T13:33:20.151Z,102094.53
2022-10-19T13:35:51.647Z,102104.94
2022-10-19T13:38:24.543Z,102099.28
2022-10-19T13:40:56.102Z,102088.03
2022-10-19T13:43:27.935Z,102090.94
2022-10-19T13:45:59.425Z,102090.72
2022-10-19T13:48:31.416Z,102088.63
2022-10-19T13:51:02.943Z,102087.66
2022-10-19T13:53:34.878Z,102087.91
2022-10-19T13:56:06.381Z,102085.34
2022-10-19T13:58:38.218Z,102090.94
2022-10-19T14:01:09.753Z,102088.09
2022-10-19T14:03:41.545Z,102091.19
2022-10-19T14:06:13.120Z,102085.34
2022-10-19T14:08:45.045Z,102086.13
2022-10-19T14:11:16.675Z,102087.81
2022-10-19T14:13:48.577Z,102084.25
2022-10-19T14:16:20.574Z,102080.50
2022-10-19T14:18:52.404Z,102088.50
2022-10-19T14:21:23.895Z,102081.34
2022-10-19T14:23:55.711Z,102080.81
2022-10-19T14:26:28.564Z,102079.00
2022-10-19T14:29:00.453Z,102086.66
2022-10-19T14:31:31.967Z,102074.66
2022-10-19T14:34:03.776Z,102069.94
2022-10-19T14:36:35.286Z,102075.84
2022-10-19T14:39:07.863Z,102071.75
2022-10-19T14:41:39.366Z,102071.44
2022-10-19T14:44:11.328Z,102063.69
2022-10-19T14:46:42.831Z,102064.81
2022-10-19T14:49:14.486Z,102057.59
2022-10-19T14:51:45.999Z,102066.06
2022-10-19T14:54:17.799Z,102064.03
2022-10-19T14:56:49.297Z,102060.94
2022-10-19T14:59:21.090Z,102063.63
2022-10-19T15:01:52.667Z,102066.16
2022-10-19T15:04:24.599Z,102058.81
2022-10-19T15:06:56.121Z,102064.84
2022-10-19T15:09:37.656Z,102060.88
2022-10-19T15:12:18.808Z,102062.06
2022-10-19T15:14:50.669Z,102055.75
2022-10-19T15:17:22.540Z,102057.09
2022-10-19T15:19:55.715Z,102062.13
2022-10-19T15:22:27.549Z,102058.00
2022-10-19T15:24:59.069Z,102057.63
2022-10-19T15:27:30.797Z,102059.53
2022-10-19T15:30:02.366Z,102062.19
2022-10-19T15:32:35.848Z,102068.38
2022-10-19T15:35:11.132Z,102070.47
2022-10-19T15:37:43.759Z,102066.34
2022-10-19T15:40:15.283Z,102070.84
2022-10-19T15:42:49.217Z,102068.56
2022-10-19T15:45:20.715Z,102072.06
2022-10-19T15:47:52.582Z,102069.19
2022-10-19T15:50:24.075Z,102057.81
2022-10-19T15:52:56.009Z,102058.84
2022-10-19T15:55:27.512Z,102072.00
2022-10-19T15:57:59.421Z,102068.06
2022-10-19T16:00:30.926Z,102074.25
2022-10-19T16:03:02.904Z,102074.03
2022-10-19T16:05:34.413Z,102065.97
2022-10-19T16:08:08.971Z,102068.63
2022-10-19T16:10:43.259Z,102070.47
2022-10-19T16:13:14.809Z,102075.38
2022-10-19T16:15:50.057Z,102081.72
2022-10-19T16:18:28.270Z,102081.66
2022-10-19T16:20:59.772Z,102086.94
2022-10-19T16:23:36.550Z,102088.34
2022-10-19T16:26:11.012Z,102089.16
2022-10-19T16:28:43.008Z,102089.75
2022-10-19T16:31:14.908Z,102090.53
2022-10-19T16:33:46.728Z,102096.66
2022-10-19T16:36:20.282Z,102093.75
2022-10-19T16:38:52.217Z,102097.00
2022-10-19T16:41:23.739Z,102108.25
2022-10-19T16:43:55.584Z,102101.84
2022-10-19T16:46:27.091Z,102103.84
2022-10-19T16:48:59.049Z,102107.09
2022-10-19T16:51:30.597Z,102104.19
2022-10-19T16:54:02.468Z,102103.13
2022-10-19T16:56:33.979Z,102105.34
2022-10-19T16:59:05.771Z,102121.97
2022-10-19T17:01:37.280Z,102113.28
2022-10-19T17:04:09.241Z,102113.66
2022-10-19T17:06:40.900Z,102123.91
2022-10-19T17:12:04.638Z,102118.66
2022-10-19T17:14:36.759Z,102123.72
2022-10-19T17:17:08.700Z,102122.66
2022-10-19T17:19:40.234Z,102128.91
2022-10-19T17:22:12.196Z,102136.59
2022-10-19T17:24:46.185Z,102132.56
2022-10-19T17:27:17.784Z,102124.06
2022-10-19T17:29:49.314Z,102137.28
2022-10-19T17:32:21.253Z,102135.53
2022-10-19T17:34:52.755Z,102127.53
2022-10-19T17:37:24.557Z,102136.28
2022-10-19T17:39:56.074Z,102136.22
2022-10-19T17:42:27.804Z,102131.81
2022-10-19T17:44:59.304Z,102140.50
2022-10-19T17:47:31.239Z,102126.91
2022-10-19T17:50:02.811Z,102126.81
2022-10-19T17:52:34.763Z,102131.25
2022-10-19T17:55:12.224Z,102130.94
2022-10-19T17:57:45.053Z,102131.47
2022-10-19T18:00:16.591Z,102137.34
2022-10-19T18:02:49.345Z,102138.25
2022-10-19T18:05:20.896Z,102138.13
2022-10-19T18:07:54.077Z,102138.22
2022-10-19T18:10:25.632Z,102141.78
2022-10-19T18:12:57.461Z,102139.84
2022-10-19T18:15:28.968Z,102139.88
2022-10-19T18:18:00.844Z,102139.13
2022-10-19T18:20:32.345Z,102140.66
2022-10-19T18:23:04.243Z,102141.03
2022-10-19T18:25:49.742Z,102142.22
2022-10-19T18:28:25.515Z,102142.75
2022-10-19T18:30:57.046Z,102151.44
2022-10-19T18:33:32.418Z,102152.44
2022-10-19T18:36:04.129Z,102141.94
2022-10-19T18:38:35.903Z,102149.47
2022-10-19T18:41:07.494Z,102151.66
2022-10-19T18:43:39.350Z,102155.31
2022-10-19T18:46:10.924Z,102150.81
2022-10-19T18:48:42.782Z,102151.28
2022-10-19T18:51:15.786Z,102144.78
2022-10-19T18:53:47.417Z,102151.63
2022-10-19T18:56:18.983Z,102147.13
2022-10-19T18:58:50.536Z,102149.28
2022-10-19T19:01:26.970Z,102145.78
2022-10-19T19:03:58.699Z,102142.47
2022-10-19T19:06:30.566Z,102145.50
2022-10-19T19:09:02.185Z,102136.69
2022-10-19T19:11:36.731Z,102138.69
2022-10-19T19:14:08.725Z,102136.38
2022-10-19T19:16:40.588Z,102143.06
2022-10-19T19:19:12.096Z,102139.75
2022-10-19T19:21:44.849Z,102134.78
2022-10-19T19:24:16.600Z,102140.47
2022-10-19T19:26:49.571Z,102142.66
2022-10-19T19:29:21.058Z,102141.50
2022-10-19T19:31:53.806Z,102135.38
2022-10-19T19:34:25.376Z,102145.88
2022-10-19T19:36:57.281Z,102131.63
2022-10-19T19:39:28.870Z,102140.31
2022-10-19T19:42:00.406Z,102134.69
2022-10-19T19:44:31.919Z,102139.69
2022-10-19T19:47:03.987Z,102136.69
2022-10-19T19:49:35.880Z,102128.06
2022-10-19T19:52:07.419Z,102133.88
2022-10-19T19:54:39.438Z,102139.88
2022-10-19T19:57:11.435Z,102132.41
2022-10-19T19:59:43.269Z,102142.38
2022-10-19T20:04:49.328Z,102138.72
2022-10-19T20:07:20.823Z,102142.56
2022-10-19T20:09:53.639Z,102141.91
2022-10-19T20:12:25.133Z,102140.53
2022-10-19T20:14:57.188Z,102139.88
2022-10-19T20:17:28.665Z,102149.19
2022-10-19T20:20:00.554Z,102150.72
2022-10-19T20:22:32.056Z,102147.03
2022-10-19T20:25:03.886Z,102157.34
2022-10-19T20:27:35.591Z,102149.06
2022-10-19T20:30:07.758Z,102160.84
2022-10-19T20:32:39.296Z,102163.19
2022-10-19T20:35:11.327Z,102160.19
2022-10-19T20:37:42.884Z,102161.69
2022-10-19T20:40:16.218Z,102162.34
2022-10-19T20:42:48.330Z,102165.50
2022-10-19T20:45:20.159Z,102164.34
2022-10-19T20:47:51.657Z,102171.63
2022-10-19T20:50:23.480Z,102177.28
2022-10-19T20:52:54.978Z,102169.00
2022-10-19T20:55:26.967Z,102173.13
2022-10-19T20:57:58.450Z,102177.13
2022-10-19T21:00:30.294Z,102180.75
2022-10-19T21:03:02.127Z,102174.25
2022-10-19T21:05:33.615Z,102180.56
2022-10-19T21:08:05.551Z,102181.03
2022-10-19T21:10:37.060Z,102182.38
2022-10-19T21:13:08.901Z,102185.00
2022-10-19T21:15:40.429Z,102181.84
2022-10-19T21:18:12.219Z,102175.06
2022-10-19T21:20:43.753Z,102173.88
2022-10-19T21:23:15.561Z,102172.38
2022-10-19T21:25:47.048Z,102166.88
2022-10-19T21:28:18.935Z,102168.69
2022-10-19T21:30:50.429Z,102174.97
2022-10-19T21:33:22.328Z,102163.88
2022-10-19T21:35:53.810Z,102160.56
2022-10-19T21:38:25.668Z,102167.84
2022-10-19T21:40:57.359Z,102171.47
2022-10-19T21:43:29.188Z,102158.03
2022-10-19T21:46:00.675Z,102161.69
2022-10-19T21:48:32.576Z,102154.88
2022-10-19T21:51:04.070Z,102154.22
2022-10-19T21:53:35.880Z,102013.53
2022-10-19T21:56:07.369Z,102160.81
2022-10-19T21:58:39.208Z,102161.16
2022-10-19T22:01:10.794Z,102158.50
2022-10-19T22:03:42.674Z,102146.06
2022-10-19T22:06:14.182Z,102148.06
2022-10-19T22:08:46.367Z,102150.88
2022-10-19T22:11:17.922Z,102143.91
2022-10-19T22:13:49.782Z,102140.25
2022-10-19T22:16:21.266Z,102144.72
2022-10-19T22:18:53.225Z,102137.78
2022-10-19T22:21:24.882Z,102132.59
2022-10-19T22:23:56.713Z,102131.09
2022-10-19T22:26:28.206Z,102120.66
2022-10-19T22:29:00.204Z,102124.47
2022-10-19T22:31:31.798Z,102125.81
2022-10-19T22:34:03.297Z,102120.97
2022-10-19T22:36:35.111Z,102111.22
2022-10-19T22:39:06.648Z,102122.47
2022-10-19T22:41:38.586Z,102114.50
2022-10-19T22:44:10.166Z,102112.84
2022-10-19T22:46:42.004Z,102118.16
2022-10-19T22:49:13.523Z,102117.31
2022-10-19T22:51:45.532Z,102115.81
2022-10-19T22:54:17.037Z,102119.28
2022-10-19T22:56:49.612Z,102116.97
2022-10-19T22:59:21.131Z,102106.53
2022-10-19T23:01:53.044Z,102102.69
2022-10-19T23:04:24.679Z,102103.00
2022-10-19T23:06:56.536Z,102108.16
2022-10-19T23:09:28.106Z,102107.81
2022-10-19T23:11:59.983Z,102100.31
2022-10-19T23:14:31.533Z,102097.97
2022-10-19T23:19:55.358Z,102097.63
2022-10-19T23:22:27.161Z,102098.75
2022-10-19T23:24:58.659Z,102104.38
2022-10-19T23:27:30.456Z,102109.16
2022-10-19T23:30:01.968Z,102105.00
2022-10-19T23:32:33.982Z,102111.59
2022-10-19T23:35:05.569Z,102107.31
2022-10-19T23:37:37.883Z,102108.59
2022-10-19T23:40:09.701Z,102112.72
2022-10-19T23:42:41.712Z,102114.53
2022-10-19T23:45:15.141Z,102124.72
2022-10-19T23:47:47.037Z,102121.38
2022-10-19T23:50:18.521Z,102123.66
2022-10-19T23:52:50.045Z,102120.31
2022-10-19T23:55:21.559Z,102129.56
2022-10-19T23:57:53.415Z,102126.09
